createdAt,value
2023-11-16T00:00:57.957Z,75.76
2023-11-16T00:02:03.816Z,75.74
2023-11-16T00:03:13.611Z,75.79
2023-11-16T00:04:17.767Z,75.81
2023-11-16T00:05:24.311Z,75.75
2023-11-16T00:06:30.566Z,75.64
2023-11-16T00:07:44.019Z,75.87
2023-11-16T00:08:53.035Z,75.92
2023-11-16T00:09:59.520Z,75.89
2023-11-16T00:11:03.670Z,75.74
2023-11-16T00:12:13.356Z,75.69
2023-11-16T00:13:20.207Z,75.76
2023-11-16T00:14:28.118Z,75.48
2023-11-16T00:15:32.099Z,75.43
2023-11-16T00:16:45.624Z,75.41
2023-11-16T00:17:49.630Z,75.62
2023-11-16T00:18:58.868Z,75.34
2023-11-16T00:20:10.511Z,75.57
2023-11-16T00:21:19.938Z,75.82
2023-11-16T00:22:28.163Z,75.72
2023-11-16T00:23:36.443Z,75.83
2023-11-16T00:24:39.998Z,75.59
2023-11-16T00:25:47.888Z,75.57
2023-11-16T00:26:52.184Z,75.68
2023-11-16T00:28:00.458Z,75.81
2023-11-16T00:29:04.781Z,75.72
2023-11-16T00:30:18.392Z,75.55
2023-11-16T00:31:24.908Z,75.48
2023-11-16T00:32:31.515Z,75.57
2023-11-16T00:33:35.896Z,75.41
2023-11-16T00:34:45.107Z,75.42
2023-11-16T00:35:49.029Z,75.35
2023-11-16T00:36:55.540Z,75.36
2023-11-16T00:37:59.459Z,75.31
2023-11-16T00:39:06.035Z,75.33
2023-11-16T00:40:11.858Z,75.22
2023-11-16T00:41:19.207Z,75.14
2023-11-16T00:42:24.457Z,74.92
2023-11-16T00:43:31.198Z,74.80
2023-11-16T00:44:35.379Z,74.79
2023-11-16T00:45:43.084Z,74.79
2023-11-16T00:46:48.983Z,74.82
2023-11-16T00:47:58.252Z,74.81
2023-11-16T00:49:03.185Z,74.64
2023-11-16T00:50:15.580Z,74.66
2023-11-16T00:51:22.156Z,74.62
2023-11-16T00:52:29.292Z,74.51
2023-11-16T00:53:34.106Z,74.40
2023-11-16T00:54:44.977Z,74.52
2023-11-16T00:55:50.509Z,74.46
2023-11-16T00:56:57.623Z,74.54
2023-11-16T00:58:04.554Z,74.63
2023-11-16T00:59:11.613Z,74.53
2023-11-16T01:00:17.332Z,74.46
2023-11-16T01:01:28.382Z,74.52
2023-11-16T01:02:31.846Z,74.60
2023-11-16T01:03:38.357Z,74.38
2023-11-16T01:04:42.988Z,74.50
2023-11-16T01:05:54.513Z,74.48
2023-11-16T01:06:58.413Z,74.41
2023-11-16T01:08:10.837Z,74.46
2023-11-16T01:09:18.111Z,74.45
2023-11-16T01:10:31.030Z,74.54
2023-11-16T01:11:37.820Z,74.61
2023-11-16T01:12:51.055Z,74.59
2023-11-16T01:13:58.008Z,74.54
2023-11-16T01:15:11.800Z,74.53
2023-11-16T01:16:19.339Z,74.35
2023-11-16T01:17:33.508Z,74.55
2023-11-16T01:18:43.742Z,74.32
2023-11-16T01:19:53.418Z,74.37
2023-11-16T01:21:01.919Z,74.46
2023-11-16T01:22:08.816Z,74.34
2023-11-16T01:23:13.416Z,74.32
2023-11-16T01:24:24.272Z,74.37
2023-11-16T01:25:32.136Z,74.30
2023-11-16T01:26:41.236Z,74.30
2023-11-16T01:27:46.615Z,74.32
2023-11-16T01:29:02.546Z,74.36
2023-11-16T01:30:10.974Z,74.31
2023-11-16T01:31:19.059Z,74.30
2023-11-16T01:32:23.095Z,74.29
2023-11-16T01:33:29.570Z,74.18
2023-11-16T01:34:36.210Z,74.20
2023-11-16T01:35:43.764Z,74.13
2023-11-16T01:36:53.270Z,74.14
2023-11-16T01:37:59.781Z,74.22
2023-11-16T01:39:03.765Z,74.19
2023-11-16T01:40:12.335Z,74.42
2023-11-16T01:41:18.138Z,74.21
2023-11-16T01:42:24.855Z,74.16
2023-11-16T01:43:28.743Z,74.07
2023-11-16T01:44:32.614Z,74.25
2023-11-16T01:45:41.700Z,74.40
2023-11-16T01:46:48.359Z,74.39
2023-11-16T01:47:55.131Z,74.44
2023-11-16T01:49:02.572Z,74.23
2023-11-16T01:50:10.157Z,74.26
2023-11-16T01:51:17.913Z,74.24
2023-11-16T01:52:28.704Z,74.13
2023-11-16T01:53:39.283Z,74.15
2023-11-16T01:54:46.933Z,74.24
2023-11-16T01:55:53.236Z,74.21
2023-11-16T01:57:03.174Z,74.20
2023-11-16T01:58:10.706Z,74.12
2023-11-16T01:59:21.775Z,74.18
2023-11-16T02:00:26.987Z,74.16
2023-11-16T02:01:39.411Z,74.17
2023-11-16T02:02:47.004Z,74.29
2023-11-16T02:03:55.679Z,74.21
2023-11-16T02:05:01.032Z,74.19
2023-11-16T02:06:09.380Z,74.18
2023-11-16T02:07:13.442Z,74.32
2023-11-16T02:08:22.906Z,74.19
2023-11-16T02:09:26.879Z,74.33
2023-11-16T02:10:33.778Z,74.26
2023-11-16T02:11:39.988Z,74.24
2023-11-16T02:12:56.194Z,74.11
2023-11-16T02:14:02.302Z,74.26
2023-11-16T02:15:14.774Z,74.34
2023-11-16T02:16:18.787Z,74.32
2023-11-16T02:17:25.343Z,74.37
2023-11-16T02:18:31.567Z,74.27
2023-11-16T02:19:43.297Z,74.37
2023-11-16T02:20:47.800Z,74.35
2023-11-16T02:21:58.938Z,74.33
2023-11-16T02:23:05.776Z,74.24
2023-11-16T02:24:14.633Z,74.50
2023-11-16T02:25:21.108Z,74.48
2023-11-16T02:26:30.706Z,74.39
2023-11-16T02:27:34.915Z,74.29
2023-11-16T02:28:41.579Z,74.31
2023-11-16T02:29:46.750Z,74.28
2023-11-16T02:30:53.364Z,74.42
2023-11-16T02:31:57.392Z,74.32
2023-11-16T02:33:01.474Z,74.36
2023-11-16T02:34:08.189Z,74.29
2023-11-16T02:35:13.333Z,74.39
2023-11-16T02:36:19.870Z,74.30
2023-11-16T02:37:26.235Z,74.22
2023-11-16T02:38:36.011Z,74.39
2023-11-16T02:39:39.865Z,74.44
2023-11-16T02:40:51.140Z,74.33
2023-11-16T02:41:57.243Z,74.28
2023-11-16T02:43:07.247Z,74.28
2023-11-16T02:44:11.259Z,74.34
2023-11-16T02:45:18.968Z,74.24
2023-11-16T02:46:25.397Z,74.39
2023-11-16T02:47:32.138Z,74.18
2023-11-16T02:48:38.187Z,74.15
2023-11-16T02:49:43.774Z,74.01
2023-11-16T02:50:53.043Z,74.02
2023-11-16T02:51:56.935Z,73.95
2023-11-16T02:53:00.877Z,74.01
2023-11-16T02:54:13.152Z,73.99
2023-11-16T02:55:21.571Z,73.90
2023-11-16T02:56:31.145Z,73.92
2023-11-16T02:57:35.059Z,74.10
2023-11-16T02:58:45.362Z,74.18
2023-11-16T02:59:49.356Z,74.17
2023-11-16T03:00:55.803Z,74.21
2023-11-16T03:01:59.850Z,74.09
2023-11-16T03:03:07.481Z,73.79
2023-11-16T03:04:11.676Z,73.75
2023-11-16T03:05:19.768Z,73.85
2023-11-16T03:06:23.611Z,74.07
2023-11-16T03:07:34.088Z,74.07
2023-11-16T03:08:38.312Z,73.93
2023-11-16T03:09:47.652Z,73.90
2023-11-16T03:10:55.232Z,73.58
2023-11-16T03:11:59.290Z,73.66
2023-11-16T03:13:13.439Z,73.68
2023-11-16T03:14:17.322Z,73.47
2023-11-16T03:15:24.315Z,73.68
2023-11-16T03:16:30.230Z,73.63
2023-11-16T03:17:47.493Z,73.52
2023-11-16T03:18:51.016Z,73.63
2023-11-16T03:19:59.624Z,73.61
2023-11-16T03:21:07.172Z,73.37
2023-11-16T03:22:18.446Z,73.35
2023-11-16T03:23:22.413Z,73.19
2023-11-16T03:24:28.887Z,73.29
2023-11-16T03:25:35.475Z,73.14
2023-11-16T03:26:42.184Z,73.17
2023-11-16T03:27:49.484Z,73.33
2023-11-16T03:28:54.979Z,73.30
2023-11-16T03:29:59.765Z,73.31
2023-11-16T03:31:08.289Z,73.37
2023-11-16T03:32:12.267Z,73.39
2023-11-16T03:33:17.881Z,73.23
2023-11-16T03:34:21.740Z,72.91
2023-11-16T03:35:30.756Z,73.02
2023-11-16T03:36:34.723Z,73.07
2023-11-16T03:37:46.560Z,72.81
2023-11-16T03:38:52.333Z,72.83
2023-11-16T03:39:59.888Z,72.93
2023-11-16T03:41:06.466Z,72.83
2023-11-16T03:42:16.077Z,72.96
2023-11-16T03:43:19.991Z,72.70
2023-11-16T03:44:27.573Z,72.92
2023-11-16T03:45:36.762Z,73.03
2023-11-16T03:46:43.386Z,72.85
2023-11-16T03:47:48.544Z,73.04
2023-11-16T03:48:55.193Z,72.98
2023-11-16T03:50:05.106Z,73.10
2023-11-16T03:51:11.723Z,72.96
2023-11-16T03:52:18.004Z,72.87
2023-11-16T03:53:27.330Z,72.86
2023-11-16T03:54:33.507Z,72.90
2023-11-16T03:55:42.723Z,72.98
2023-11-16T03:56:54.371Z,72.90
2023-11-16T03:58:01.009Z,72.83
2023-11-16T03:59:05.405Z,72.78
2023-11-16T04:00:16.310Z,72.80
2023-11-16T04:01:20.391Z,72.88
2023-11-16T04:02:27.696Z,72.82
2023-11-16T04:03:36.126Z,73.05
2023-11-16T04:04:44.079Z,73.12
2023-11-16T04:05:48.782Z,73.17
2023-11-16T04:06:57.492Z,72.86
2023-11-16T04:08:02.335Z,72.75
2023-11-16T04:09:10.464Z,72.81
2023-11-16T04:10:18.108Z,72.90
2023-11-16T04:11:24.570Z,72.87
2023-11-16T04:12:33.352Z,73.09
2023-11-16T04:13:42.141Z,72.94
2023-11-16T04:14:46.007Z,72.94
2023-11-16T04:15:54.402Z,72.88
2023-11-16T04:17:02.086Z,72.94
2023-11-16T04:18:10.574Z,72.96
2023-11-16T04:19:16.877Z,72.90
2023-11-16T04:20:24.630Z,72.98
2023-11-16T04:21:30.911Z,72.90
2023-11-16T04:22:41.368Z,72.90
2023-11-16T04:23:46.877Z,72.94
2023-11-16T04:24:54.292Z,72.88
2023-11-16T04:26:00.425Z,73.01
2023-11-16T04:27:10.029Z,72.96
2023-11-16T04:28:16.576Z,72.99
2023-11-16T04:29:25.096Z,72.83
2023-11-16T04:30:32.757Z,72.82
2023-11-16T04:31:41.879Z,72.87
2023-11-16T04:32:48.135Z,72.87
2023-11-16T04:33:56.333Z,72.78
2023-11-16T04:35:00.963Z,72.84
2023-11-16T04:36:09.719Z,72.83
2023-11-16T04:37:17.411Z,72.93
2023-11-16T04:38:21.654Z,72.80
2023-11-16T04:39:30.860Z,72.83
2023-11-16T04:40:34.745Z,72.81
2023-11-16T04:41:47.001Z,72.88
2023-11-16T04:42:50.465Z,72.81
2023-11-16T04:44:02.804Z,72.92
2023-11-16T04:45:12.685Z,72.91
2023-11-16T04:46:22.287Z,72.93
2023-11-16T04:47:27.067Z,73.00
2023-11-16T04:48:34.269Z,73.07
2023-11-16T04:49:38.886Z,72.85
2023-11-16T04:50:48.244Z,72.74
2023-11-16T04:51:52.060Z,72.85
2023-11-16T04:52:59.107Z,72.77
2023-11-16T04:54:03.251Z,72.61
2023-11-16T04:55:13.090Z,72.58
2023-11-16T04:56:22.726Z,72.68
2023-11-16T04:57:26.616Z,72.69
2023-11-16T04:58:33.127Z,72.70
2023-11-16T04:59:42.635Z,72.89
2023-11-16T05:00:49.343Z,72.83
2023-11-16T05:01:53.552Z,72.67
2023-11-16T05:03:00.037Z,72.81
2023-11-16T05:04:06.932Z,72.87
2023-11-16T05:05:17.478Z,72.72
2023-11-16T05:06:21.453Z,72.80
2023-11-16T05:07:29.923Z,72.81
2023-11-16T05:08:33.863Z,72.80
2023-11-16T05:09:43.222Z,72.77
2023-11-16T05:10:49.278Z,72.77
2023-11-16T05:11:55.884Z,72.77
2023-11-16T05:12:59.818Z,72.63
2023-11-16T05:14:06.949Z,72.76
2023-11-16T05:15:17.752Z,72.65
2023-11-16T05:16:28.671Z,72.70
2023-11-16T05:17:32.917Z,72.68
2023-11-16T05:18:40.320Z,72.75
2023-11-16T05:19:46.746Z,72.65
2023-11-16T05:20:54.665Z,72.55
2023-11-16T05:21:58.542Z,72.78
2023-11-16T05:23:05.253Z,72.97
2023-11-16T05:24:10.640Z,72.74
2023-11-16T05:25:16.955Z,72.81
2023-11-16T05:26:21.666Z,72.90
2023-11-16T05:27:30.818Z,73.06
2023-11-16T05:28:34.655Z,72.84
2023-11-16T05:29:43.747Z,72.66
2023-11-16T05:30:51.998Z,72.77
2023-11-16T05:31:58.810Z,72.75
2023-11-16T05:33:05.057Z,72.81
2023-11-16T05:34:11.863Z,72.79
2023-11-16T05:35:15.860Z,72.77
2023-11-16T05:36:31.164Z,72.78
2023-11-16T05:37:51.499Z,72.81
2023-11-16T05:39:01.313Z,72.68
2023-11-16T05:40:17.401Z,72.79
2023-11-16T05:41:31.279Z,72.65
2023-11-16T05:42:38.647Z,72.68
2023-11-16T05:43:45.492Z,72.78
2023-11-16T05:44:51.730Z,72.71
2023-11-16T05:46:00.894Z,72.65
2023-11-16T05:47:04.764Z,72.71
2023-11-16T05:48:12.077Z,72.64
2023-11-16T05:49:17.018Z,72.75
2023-11-16T05:50:27.339Z,72.71
2023-11-16T05:51:34.330Z,72.73
2023-11-16T05:52:41.415Z,72.72
2023-11-16T05:53:45.331Z,72.65
2023-11-16T05:54:52.061Z,72.61
2023-11-16T05:55:58.557Z,72.56
2023-11-16T05:57:08.802Z,72.75
2023-11-16T05:58:12.658Z,72.81
2023-11-16T05:59:19.347Z,72.76
2023-11-16T06:00:22.625Z,72.76
2023-11-16T06:01:33.986Z,72.80
2023-11-16T06:02:38.271Z,72.78
2023-11-16T06:03:44.858Z,72.69
2023-11-16T06:04:50.096Z,72.65
2023-11-16T06:05:56.583Z,72.58
2023-11-16T06:07:01.575Z,72.53
2023-11-16T06:08:08.898Z,72.59
2023-11-16T06:09:13.166Z,72.47
2023-11-16T06:10:21.245Z,72.60
2023-11-16T06:11:25.412Z,72.65
2023-11-16T06:12:31.925Z,72.51
2023-11-16T06:13:38.880Z,72.54
2023-11-16T06:14:53.478Z,72.42
2023-11-16T06:16:01.531Z,72.23
2023-11-16T06:17:10.616Z,72.36
2023-11-16T06:18:14.700Z,72.28
2023-11-16T06:19:21.180Z,72.36
2023-11-16T06:20:29.682Z,72.17
2023-11-16T06:21:41.442Z,72.10
2023-11-16T06:22:45.512Z,72.07
2023-11-16T06:23:52.012Z,71.99
2023-11-16T06:24:55.899Z,72.12
2023-11-16T06:26:02.024Z,72.12
2023-11-16T06:27:09.269Z,72.07
2023-11-16T06:28:13.117Z,72.11
2023-11-16T06:29:19.663Z,71.99
2023-11-16T06:30:26.174Z,72.01
2023-11-16T06:31:32.694Z,71.88
2023-11-16T06:32:39.770Z,71.76
2023-11-16T06:33:46.319Z,71.72
2023-11-16T06:34:50.472Z,71.65
2023-11-16T06:35:54.321Z,71.71
2023-11-16T06:37:01.348Z,71.77
2023-11-16T06:38:05.222Z,71.81
2023-11-16T06:39:12.240Z,71.78
2023-11-16T06:40:18.388Z,71.84
2023-11-16T06:41:25.488Z,71.91
2023-11-16T06:42:29.739Z,71.86
2023-11-16T06:43:38.455Z,71.82
2023-11-16T06:44:41.889Z,71.90
2023-11-16T06:45:51.010Z,71.79
2023-11-16T06:46:55.985Z,71.87
2023-11-16T06:48:08.500Z,71.72
2023-11-16T06:49:12.426Z,71.70
2023-11-16T06:50:19.500Z,71.89
2023-11-16T06:51:23.446Z,71.76
2023-11-16T06:52:30.169Z,71.76
2023-11-16T06:53:34.071Z,71.80
2023-11-16T06:54:43.066Z,71.95
2023-11-16T06:55:46.944Z,71.82
2023-11-16T06:56:54.555Z,71.72
2023-11-16T06:58:00.878Z,71.71
2023-11-16T06:59:09.917Z,71.68
2023-11-16T07:00:21.380Z,71.70
2023-11-16T07:01:33.421Z,71.53
2023-11-16T07:02:39.917Z,71.60
2023-11-16T07:03:51.747Z,71.65
2023-11-16T07:05:00.335Z,71.68
2023-11-16T07:06:06.617Z,71.58
2023-11-16T07:07:10.721Z,71.39
2023-11-16T07:08:19.377Z,71.26
2023-11-16T07:09:24.674Z,71.14
2023-11-16T07:10:31.042Z,71.30
2023-11-16T07:11:34.967Z,71.18
2023-11-16T07:12:42.627Z,71.20
2023-11-16T07:13:46.290Z,70.95
2023-11-16T07:14:54.511Z,71.09
2023-11-16T07:16:00.875Z,71.02
2023-11-16T07:17:12.332Z,71.13
2023-11-16T07:18:21.093Z,71.13
2023-11-16T07:19:33.588Z,71.14
2023-11-16T07:20:37.563Z,71.06
2023-11-16T07:21:44.299Z,71.15
2023-11-16T07:22:50.798Z,71.13
2023-11-16T07:23:57.327Z,70.87
2023-11-16T07:25:05.860Z,70.96
2023-11-16T07:26:15.422Z,70.46
2023-11-16T07:27:19.531Z,70.94
2023-11-16T07:28:32.197Z,70.71
2023-11-16T07:29:38.227Z,70.68
2023-11-16T07:30:44.838Z,70.70
2023-11-16T07:31:50.994Z,70.59
2023-11-16T07:32:59.291Z,70.67
2023-11-16T07:34:04.038Z,70.69
2023-11-16T07:35:24.778Z,70.57
2023-11-16T07:36:28.801Z,70.69
2023-11-16T07:37:35.291Z,70.86
2023-11-16T07:38:41.862Z,70.91
2023-11-16T07:39:48.418Z,70.80
2023-11-16T07:40:53.855Z,70.86
2023-11-16T07:42:00.545Z,70.54
2023-11-16T07:43:04.492Z,70.37
2023-11-16T07:44:13.960Z,70.68
2023-11-16T07:45:18.607Z,70.54
2023-11-16T07:46:27.415Z,70.59
2023-11-16T07:47:31.321Z,70.46
2023-11-16T07:48:40.403Z,70.43
2023-11-16T07:49:44.131Z,70.62
2023-11-16T07:50:53.253Z,70.52
2023-11-16T07:51:58.470Z,70.84
2023-11-16T07:53:10.570Z,70.97
2023-11-16T07:54:17.164Z,71.11
2023-11-16T07:55:24.047Z,71.21
2023-11-16T07:56:28.885Z,71.27
2023-11-16T07:57:36.101Z,71.02
2023-11-16T07:58:47.399Z,71.12
2023-11-16T07:59:55.349Z,71.01
2023-11-16T08:01:05.831Z,71.01
2023-11-16T08:02:17.730Z,71.29
2023-11-16T08:03:36.789Z,71.40
2023-11-16T08:04:43.285Z,71.12
2023-11-16T08:05:49.914Z,71.36
2023-11-16T08:06:57.765Z,71.26
2023-11-16T08:08:04.463Z,71.29
2023-11-16T08:09:11.029Z,71.11
2023-11-16T08:10:18.004Z,71.29
2023-11-16T08:11:26.986Z,71.50
2023-11-16T08:12:34.355Z,71.56
2023-11-16T08:13:42.447Z,71.74
2023-11-16T08:14:46.356Z,71.65
2023-11-16T08:15:58.151Z,71.72
2023-11-16T08:17:02.181Z,71.90
2023-11-16T08:18:09.627Z,71.98
2023-11-16T08:19:13.517Z,72.03
2023-11-16T08:20:23.898Z,72.00
2023-11-16T08:21:30.480Z,72.02
2023-11-16T08:22:38.946Z,72.02
2023-11-16T08:23:49.226Z,72.25
2023-11-16T08:25:00.138Z,72.23
2023-11-16T08:26:08.031Z,72.31
2023-11-16T08:27:18.591Z,72.47
2023-11-16T08:28:22.473Z,72.42
2023-11-16T08:29:31.502Z,72.69
2023-11-16T08:30:34.882Z,72.46
2023-11-16T08:31:46.256Z,72.48
2023-11-16T08:32:50.588Z,72.41
2023-11-16T08:33:57.750Z,72.48
2023-11-16T08:35:01.579Z,72.35
2023-11-16T08:36:10.605Z,72.33
2023-11-16T08:37:22.318Z,72.58
2023-11-16T08:38:27.060Z,72.49
2023-11-16T08:39:35.823Z,72.44
2023-11-16T08:40:40.351Z,72.43
2023-11-16T08:41:48.134Z,72.73
2023-11-16T08:42:52.573Z,72.72
2023-11-16T08:43:59.081Z,72.49
2023-11-16T08:45:06.041Z,72.68
2023-11-16T08:46:22.805Z,72.81
2023-11-16T08:47:29.239Z,72.49
2023-11-16T08:48:35.800Z,72.42
2023-11-16T08:49:42.508Z,72.61
2023-11-16T08:50:52.036Z,72.49
2023-11-16T08:52:01.235Z,72.60
2023-11-16T08:53:15.951Z,72.44
2023-11-16T08:54:30.716Z,72.49
2023-11-16T08:55:35.237Z,72.53
2023-11-16T08:56:44.527Z,72.49
2023-11-16T08:57:52.020Z,72.50
2023-11-16T08:59:01.143Z,72.67
2023-11-16T09:00:22.217Z,72.91
2023-11-16T09:01:28.983Z,72.79
2023-11-16T09:02:33.648Z,72.58
2023-11-16T09:03:47.703Z,72.64
2023-11-16T09:04:51.912Z,72.62
2023-11-16T09:06:03.787Z,72.69
2023-11-16T09:07:10.659Z,72.68
2023-11-16T09:08:22.618Z,72.62
2023-11-16T09:09:37.911Z,72.61
2023-11-16T09:10:46.014Z,72.54
2023-11-16T09:11:50.697Z,72.61
2023-11-16T09:12:55.123Z,72.70
2023-11-16T09:14:01.640Z,72.61
2023-11-16T09:15:11.777Z,72.51
2023-11-16T09:16:19.047Z,72.50
2023-11-16T09:17:24.694Z,72.38
2023-11-16T09:18:31.450Z,72.52
2023-11-16T09:19:35.671Z,72.52
2023-11-16T09:20:47.485Z,72.17
2023-11-16T09:21:52.853Z,71.89
2023-11-16T09:23:01.925Z,72.09
2023-11-16T09:24:10.386Z,71.96
2023-11-16T09:25:20.508Z,71.84
2023-11-16T09:26:25.787Z,71.97
2023-11-16T09:27:32.525Z,71.86
2023-11-16T09:28:40.200Z,71.69
2023-11-16T09:29:48.446Z,71.53
2023-11-16T09:30:52.398Z,71.70
2023-11-16T09:31:59.081Z,71.78
2023-11-16T09:33:07.520Z,71.66
2023-11-16T09:34:17.964Z,71.49
2023-11-16T09:35:29.002Z,71.44
2023-11-16T09:36:38.728Z,71.36
2023-11-16T09:37:46.533Z,71.23
2023-11-16T09:38:53.030Z,71.39
2023-11-16T09:40:07.078Z,71.51
2023-11-16T09:41:23.281Z,71.41
2023-11-16T09:42:28.083Z,71.83
2023-11-16T09:43:42.449Z,71.77
2023-11-16T09:44:56.958Z,71.32
2023-11-16T09:46:12.788Z,71.22
2023-11-16T09:47:27.807Z,71.28
2023-11-16T09:48:40.834Z,71.16
2023-11-16T09:49:48.900Z,71.06
2023-11-16T09:50:56.747Z,70.51
2023-11-16T09:52:01.545Z,70.84
2023-11-16T09:53:15.170Z,70.30
2023-11-16T09:54:23.988Z,70.21
2023-11-16T09:55:39.247Z,70.02
2023-11-16T09:56:49.844Z,70.23
2023-11-16T09:58:00.349Z,70.22
2023-11-16T09:59:07.888Z,70.35
2023-11-16T10:00:19.917Z,70.05
2023-11-16T10:01:23.512Z,70.34
2023-11-16T10:02:30.065Z,70.03
2023-11-16T10:03:38.064Z,69.26
2023-11-16T10:04:46.180Z,69.42
2023-11-16T10:05:54.632Z,69.26
2023-11-16T10:07:06.775Z,69.58
2023-11-16T10:08:16.021Z,69.49
2023-11-16T10:09:27.307Z,69.70
2023-11-16T10:10:39.416Z,69.73
2023-11-16T10:11:48.756Z,69.74
2023-11-16T10:12:52.793Z,69.62
2023-11-16T10:14:00.169Z,69.83
2023-11-16T10:15:18.846Z,69.47
2023-11-16T10:16:30.350Z,68.95
2023-11-16T10:17:41.782Z,67.34
2023-11-16T10:18:52.516Z,67.52
2023-11-16T10:19:57.730Z,67.04
2023-11-16T10:21:15.397Z,66.95
2023-11-16T10:22:21.827Z,66.61
2023-11-16T10:23:31.548Z,65.74
2023-11-16T10:24:41.984Z,66.45
2023-11-16T10:25:55.832Z,67.16
2023-11-16T10:26:59.835Z,67.31
2023-11-16T10:28:20.694Z,66.94
2023-11-16T10:29:25.449Z,65.45
2023-11-16T10:30:36.632Z,65.31
2023-11-16T10:31:47.759Z,65.19
2023-11-16T10:32:56.725Z,63.06
2023-11-16T10:34:11.772Z,62.53
2023-11-16T10:35:19.342Z,62.61
2023-11-16T10:36:39.251Z,61.79
2023-11-16T10:37:43.979Z,61.59
2023-11-16T10:38:57.372Z,62.31
2023-11-16T10:40:08.056Z,62.30
2023-11-16T10:41:20.301Z,63.47
2023-11-16T10:42:28.146Z,63.32
2023-11-16T10:43:42.989Z,63.03
2023-11-16T10:44:49.629Z,62.45
2023-11-16T10:45:58.017Z,63.07
2023-11-16T10:47:04.988Z,63.01
2023-11-16T10:48:10.926Z,63.21
2023-11-16T10:49:18.077Z,63.82
2023-11-16T10:50:23.550Z,64.11
2023-11-16T10:51:30.393Z,63.50
2023-11-16T10:52:40.452Z,64.44
2023-11-16T10:53:50.204Z,63.53
2023-11-16T10:54:59.934Z,64.34
2023-11-16T10:56:13.179Z,64.22
2023-11-16T10:57:26.593Z,63.28
2023-11-16T10:58:42.481Z,63.26
2023-11-16T10:59:48.787Z,62.69
2023-11-16T11:00:59.220Z,63.31
2023-11-16T11:02:05.308Z,63.50
2023-11-16T11:03:18.373Z,62.78
2023-11-16T11:04:24.099Z,62.98
2023-11-16T11:05:38.320Z,63.16
2023-11-16T11:06:44.335Z,63.16
2023-11-16T11:07:58.371Z,63.08
2023-11-16T11:09:01.918Z,63.26
2023-11-16T11:10:10.685Z,62.91
2023-11-16T11:11:26.625Z,62.51
2023-11-16T11:12:44.097Z,63.23
2023-11-16T11:13:55.479Z,62.56
2023-11-16T11:15:07.008Z,62.37
2023-11-16T11:16:14.222Z,62.19
2023-11-16T11:17:22.140Z,62.60
2023-11-16T11:18:26.961Z,62.08
2023-11-16T11:19:40.034Z,61.39
2023-11-16T11:20:45.638Z,61.22
2023-11-16T11:21:53.254Z,61.84
2023-11-16T11:23:07.605Z,61.96
2023-11-16T11:24:14.558Z,60.70
2023-11-16T11:25:23.978Z,60.40
2023-11-16T11:26:40.617Z,60.99
2023-11-16T11:27:52.622Z,60.24
2023-11-16T11:28:56.650Z,61.05
2023-11-16T11:30:17.783Z,61.50
2023-11-16T11:31:37.683Z,60.61
2023-11-16T11:33:00.757Z,59.76
2023-11-16T11:34:12.826Z,60.11
2023-11-16T11:35:19.890Z,59.59
2023-11-16T11:36:24.075Z,60.03
2023-11-16T11:37:39.927Z,61.36
2023-11-16T11:38:45.122Z,60.91
2023-11-16T11:39:53.903Z,59.11
2023-11-16T11:41:07.962Z,60.35
2023-11-16T11:42:14.690Z,60.30
2023-11-16T11:43:26.371Z,58.99
2023-11-16T11:44:35.096Z,59.46
2023-11-16T11:45:41.572Z,59.22
2023-11-16T11:46:49.288Z,60.16
2023-11-16T11:47:55.794Z,59.48
2023-11-16T11:49:05.778Z,59.92
2023-11-16T11:50:10.535Z,59.95
2023-11-16T11:51:18.082Z,60.02
2023-11-16T11:52:26.280Z,59.09
2023-11-16T11:53:36.635Z,58.74
2023-11-16T11:54:46.934Z,58.67
2023-11-16T11:55:53.610Z,58.56
2023-11-16T11:56:57.584Z,59.23
2023-11-16T11:58:05.331Z,58.63
2023-11-16T11:59:13.894Z,58.88
2023-11-16T12:00:20.700Z,57.42
2023-11-16T12:01:24.770Z,57.92
2023-11-16T12:02:34.127Z,57.81
2023-11-16T12:03:51.682Z,58.38
2023-11-16T12:04:59.984Z,57.91
2023-11-16T12:06:05.358Z,56.91
2023-11-16T12:07:14.385Z,57.73
2023-11-16T12:08:18.694Z,57.25
2023-11-16T12:09:26.746Z,55.50
2023-11-16T12:10:31.543Z,55.28
2023-11-16T12:11:43.280Z,55.39
2023-11-16T12:12:47.330Z,55.70
2023-11-16T12:13:55.361Z,55.34
2023-11-16T12:15:05.049Z,56.11
2023-11-16T12:16:16.946Z,55.74
2023-11-16T12:17:20.945Z,54.70
2023-11-16T12:18:27.866Z,54.88
2023-11-16T12:19:33.048Z,55.28
2023-11-16T12:20:42.387Z,55.49
2023-11-16T12:21:48.681Z,54.79
2023-11-16T12:23:01.486Z,54.96
2023-11-16T12:24:13.173Z,55.05
2023-11-16T12:25:25.363Z,55.93
2023-11-16T12:26:32.946Z,55.31
2023-11-16T12:27:43.083Z,56.40
2023-11-16T12:28:48.983Z,56.40
2023-11-16T12:30:00.500Z,55.55
2023-11-16T12:31:08.439Z,56.18
2023-11-16T12:32:16.021Z,56.09
2023-11-16T12:33:20.545Z,56.57
2023-11-16T12:34:28.589Z,56.06
2023-11-16T12:35:32.714Z,55.62
2023-11-16T12:36:39.349Z,55.54
2023-11-16T12:37:44.041Z,55.16
2023-11-16T12:38:51.420Z,55.51
2023-11-16T12:39:55.758Z,55.72
2023-11-16T12:41:11.708Z,55.90
2023-11-16T12:42:17.233Z,55.29
2023-11-16T12:43:24.552Z,54.97
2023-11-16T12:44:37.811Z,55.45
2023-11-16T12:45:45.156Z,54.98
2023-11-16T12:46:54.255Z,55.31
2023-11-16T12:48:03.835Z,55.14
2023-11-16T12:49:10.784Z,55.23
2023-11-16T12:50:17.614Z,54.92
2023-11-16T12:51:25.764Z,55.09
2023-11-16T12:52:34.369Z,54.67
2023-11-16T12:53:42.080Z,55.06
2023-11-16T12:54:52.674Z,54.54
2023-11-16T12:55:59.339Z,55.01
2023-11-16T12:57:11.351Z,54.93
2023-11-16T12:58:15.391Z,54.95
2023-11-16T12:59:24.705Z,54.51
2023-11-16T13:00:30.869Z,53.88
2023-11-16T13:01:40.078Z,54.18
2023-11-16T13:02:47.168Z,54.35
2023-11-16T13:03:54.179Z,53.95
2023-11-16T13:05:01.286Z,54.08
2023-11-16T13:06:10.591Z,54.12
2023-11-16T13:07:14.160Z,54.30
2023-11-16T13:08:23.720Z,54.13
2023-11-16T13:09:27.782Z,54.26
2023-11-16T13:10:37.237Z,53.93
2023-11-16T13:11:42.470Z,53.98
2023-11-16T13:12:51.348Z,54.21
2023-11-16T13:13:55.352Z,54.26
2023-11-16T13:15:01.995Z,54.46
2023-11-16T13:16:10.631Z,54.86
2023-11-16T13:17:20.192Z,54.72
2023-11-16T13:18:26.769Z,54.77
2023-11-16T13:19:35.379Z,54.13
2023-11-16T13:20:39.247Z,54.63
2023-11-16T13:21:48.070Z,54.32
2023-11-16T13:22:52.473Z,55.12
2023-11-16T13:23:58.920Z,55.15
2023-11-16T13:25:05.225Z,55.66
2023-11-16T13:26:13.468Z,55.08
2023-11-16T13:27:22.773Z,55.75
2023-11-16T13:28:30.946Z,55.68
2023-11-16T13:29:37.220Z,55.60
2023-11-16T13:30:46.177Z,54.77
2023-11-16T13:31:51.921Z,55.31
2023-11-16T13:32:58.243Z,54.68
2023-11-16T13:34:04.838Z,54.71
2023-11-16T13:35:14.723Z,54.29
2023-11-16T13:36:21.636Z,54.16
2023-11-16T13:37:28.236Z,54.67
2023-11-16T13:38:35.156Z,54.98
2023-11-16T13:39:42.967Z,54.88
2023-11-16T13:40:49.992Z,55.35
2023-11-16T13:41:56.572Z,55.52
2023-11-16T13:43:04.377Z,55.30
2023-11-16T13:44:13.911Z,55.33
2023-11-16T13:45:19.472Z,55.62
2023-11-16T13:46:26.651Z,55.65
2023-11-16T13:47:31.188Z,55.66
2023-11-16T13:48:37.562Z,56.11
2023-11-16T13:49:45.077Z,56.14
2023-11-16T13:50:53.437Z,55.89
2023-11-16T13:51:57.997Z,56.16
2023-11-16T13:53:04.553Z,56.30
2023-11-16T13:54:08.456Z,56.83
2023-11-16T13:55:16.081Z,56.94
2023-11-16T13:56:19.912Z,56.99
2023-11-16T13:57:27.312Z,56.72
2023-11-16T13:58:33.649Z,56.82
2023-11-16T13:59:40.116Z,56.87
2023-11-16T14:00:45.691Z,56.56
2023-11-16T14:01:53.992Z,56.86
2023-11-16T14:03:00.815Z,56.81
2023-11-16T14:04:07.839Z,56.91
2023-11-16T14:05:15.026Z,56.56
2023-11-16T14:06:21.652Z,56.44
2023-11-16T14:07:26.979Z,56.95
2023-11-16T14:08:34.324Z,56.61
2023-11-16T14:09:39.460Z,56.72
2023-11-16T14:10:45.943Z,56.94
2023-11-16T14:11:49.930Z,56.75
2023-11-16T14:12:56.882Z,56.90
2023-11-16T14:14:00.805Z,56.95
2023-11-16T14:15:10.416Z,57.13
2023-11-16T14:16:14.892Z,57.15
2023-11-16T14:17:22.292Z,56.99
2023-11-16T14:18:26.305Z,57.06
2023-11-16T14:19:32.890Z,56.96
2023-11-16T14:20:39.298Z,56.94
2023-11-16T14:21:45.088Z,56.98
2023-11-16T14:22:51.784Z,57.10
2023-11-16T14:24:03.590Z,57.16
2023-11-16T14:25:10.616Z,57.24
2023-11-16T14:26:19.611Z,57.08
2023-11-16T14:27:25.190Z,57.35
2023-11-16T14:28:31.698Z,57.46
2023-11-16T14:29:36.121Z,57.34
2023-11-16T14:30:42.826Z,57.41
2023-11-16T14:31:49.169Z,57.31
2023-11-16T14:32:55.795Z,57.57
2023-11-16T14:33:59.870Z,57.70